Terminal Aerodrome Forecast
Issued by NWS

Home | Current Version | Previous Version | Text Only | Print | Product List | Glossary On
Versions: 1 2 3 4 5 6 7 8 9 10 11 12 13 14 15 16 17 18 19 20 21 22
000
FTUS46 KLOX 031122
TAFOXR
TAF
KOXR 031122Z 0312/0412 VRB03KT P6SM SCT200
     FM031700 24006KT P6SM SCT200
     FM031900 27012KT P6SM BKN200
     FM040500 VRB03KT P6SM BKN200
     FM040900 VRB03KT P6SM OVC015=

USA.gov is the U.S. government's official web portal to all federal, state and local government web resources and services.